createdAt,value
2018-06-24T00:01:18.322Z,57.80
2018-06-24T00:03:46.150Z,58.00
2018-06-24T00:06:13.807Z,58.80
2018-06-24T00:08:41.459Z,59.20
2018-06-24T00:11:09.134Z,59.10
2018-06-24T00:13:36.682Z,58.50
2018-06-24T00:16:04.456Z,58.70
2018-06-24T00:18:32.054Z,58.90
2018-06-24T00:20:59.626Z,59.00
2018-06-24T00:23:27.273Z,58.90
2018-06-24T00:25:55.000Z,58.80
2018-06-24T00:28:22.579Z,59.00
2018-06-24T00:30:50.148Z,59.10
2018-06-24T00:33:17.669Z,59.00
2018-06-24T00:35:45.239Z,59.10
2018-06-24T00:38:12.780Z,59.00
2018-06-24T00:40:40.383Z,58.80
2018-06-24T00:43:07.917Z,59.00
2018-06-24T00:45:35.475Z,59.20
2018-06-24T00:48:04.074Z,59.10
2018-06-24T00:50:31.658Z,59.20
2018-06-24T00:52:59.222Z,59.30
2018-06-24T00:55:26.751Z,58.90
2018-06-24T00:57:54.416Z,58.80
2018-06-24T01:00:21.985Z,58.60
2018-06-24T01:02:49.566Z,59.30
2018-06-24T01:05:17.080Z,59.30
2018-06-24T01:07:45.207Z,59.50
2018-06-24T01:10:12.814Z,59.50
2018-06-24T01:12:40.955Z,59.80
2018-06-24T01:15:08.721Z,59.80
2018-06-24T01:17:36.255Z,59.70
2018-06-24T01:20:04.686Z,59.60
2018-06-24T01:22:32.262Z,59.40
2018-06-24T01:25:00.986Z,59.60
2018-06-24T01:27:28.415Z,60.00
2018-06-24T01:29:55.968Z,59.70
2018-06-24T01:32:23.958Z,59.90
2018-06-24T01:34:51.790Z,59.70
2018-06-24T01:37:19.274Z,60.00
2018-06-24T01:39:46.870Z,60.00
2018-06-24T01:42:14.492Z,59.80
2018-06-24T01:44:42.109Z,60.10
2018-06-24T01:47:09.675Z,60.60
2018-06-24T01:49:37.210Z,60.70
2018-06-24T01:52:04.779Z,60.80
2018-06-24T01:54:32.440Z,60.60
2018-06-24T01:57:00.219Z,60.90
2018-06-24T01:59:28.856Z,60.10
2018-06-24T02:01:56.497Z,59.80
2018-06-24T02:04:23.977Z,60.40
2018-06-24T02:06:52.067Z,59.90
2018-06-24T02:09:19.558Z,59.60
2018-06-24T02:11:47.160Z,60.10
2018-06-24T02:14:14.675Z,59.50
2018-06-24T02:16:42.227Z,59.70
2018-06-24T02:19:10.448Z,60.00
2018-06-24T02:21:38.614Z,60.00
2018-06-24T02:24:06.150Z,60.20
2018-06-24T02:26:33.729Z,60.50
2018-06-24T02:29:01.289Z,60.80
2018-06-24T02:31:28.900Z,60.70
2018-06-24T02:33:56.522Z,60.70
2018-06-24T02:36:24.060Z,61.20
2018-06-24T02:38:51.652Z,60.70
2018-06-24T02:41:19.183Z,60.40
2018-06-24T02:43:46.757Z,60.60
2018-06-24T02:46:14.359Z,60.30
2018-06-24T02:48:41.996Z,60.90
2018-06-24T02:51:09.487Z,61.10
2018-06-24T02:53:37.128Z,61.40
2018-06-24T02:56:05.007Z,61.20
2018-06-24T02:58:32.643Z,61.10
2018-06-24T03:01:00.272Z,61.50
2018-06-24T03:03:27.825Z,61.80
2018-06-24T03:05:55.553Z,61.90
2018-06-24T03:08:23.152Z,62.10
2018-06-24T03:10:50.753Z,62.30
2018-06-24T03:13:18.255Z,62.00
2018-06-24T03:15:45.809Z,62.10
2018-06-24T03:18:15.627Z,61.70
2018-06-24T03:20:43.358Z,61.80
2018-06-24T03:23:10.956Z,61.90
2018-06-24T03:25:38.470Z,62.20
2018-06-24T03:28:06.102Z,61.80
2018-06-24T03:30:33.798Z,61.90
2018-06-24T03:33:01.534Z,62.30
2018-06-24T03:35:29.103Z,61.80
2018-06-24T03:37:56.682Z,61.50
2018-06-24T03:40:24.145Z,62.60
2018-06-24T03:42:52.823Z,62.70
2018-06-24T03:45:20.406Z,63.00
2018-06-24T03:47:47.878Z,63.20
2018-06-24T03:50:15.403Z,63.30
2018-06-24T03:52:42.970Z,63.30
2018-06-24T03:55:10.589Z,63.30
2018-06-24T03:57:38.135Z,63.10
2018-06-24T04:00:06.221Z,63.20
2018-06-24T04:02:33.792Z,63.50
2018-06-24T04:05:01.301Z,62.90
2018-06-24T04:07:28.867Z,63.00
2018-06-24T04:09:56.365Z,64.10
2018-06-24T04:12:23.959Z,64.60
2018-06-24T04:14:51.546Z,64.60
2018-06-24T04:17:19.010Z,64.80
2018-06-24T04:19:46.561Z,64.20
2018-06-24T04:22:14.219Z,65.00
2018-06-24T04:24:41.754Z,65.30
2018-06-24T04:27:09.290Z,65.40
2018-06-24T04:29:36.837Z,65.60
2018-06-24T04:32:04.427Z,65.60
2018-06-24T04:34:32.955Z,65.70
2018-06-24T04:37:00.441Z,65.30
2018-06-24T04:39:27.970Z,65.10
2018-06-24T04:41:55.546Z,65.20
2018-06-24T04:44:23.078Z,64.60
2018-06-24T04:46:50.651Z,65.60
2018-06-24T04:49:18.240Z,64.40
2018-06-24T04:51:45.850Z,64.10
2018-06-24T04:54:13.353Z,66.00
2018-06-24T04:56:40.913Z,65.90
2018-06-24T04:59:08.424Z,65.70
2018-06-24T05:01:36.096Z,67.10
2018-06-24T05:04:03.744Z,66.20
2018-06-24T05:06:31.373Z,66.20
2018-06-24T05:08:59.036Z,66.70
2018-06-24T05:11:26.691Z,66.30
2018-06-24T05:13:54.160Z,67.70
2018-06-24T05:16:21.732Z,68.70
2018-06-24T05:18:49.359Z,68.60
2018-06-24T05:21:16.861Z,70.00
2018-06-24T05:23:44.411Z,67.60
2018-06-24T05:26:11.874Z,70.20
2018-06-24T05:28:39.414Z,69.10
2018-06-24T05:31:07.053Z,68.40
2018-06-24T05:33:34.635Z,68.70
2018-06-24T05:36:02.228Z,69.60
2018-06-24T05:38:29.781Z,69.90
2018-06-24T05:40:57.361Z,69.50
2018-06-24T05:43:24.885Z,70.40
2018-06-24T05:45:52.509Z,71.20
2018-06-24T05:48:20.145Z,68.80
2018-06-24T05:50:47.636Z,68.10
2018-06-24T05:53:15.135Z,69.40
2018-06-24T05:55:42.693Z,68.80
2018-06-24T05:58:10.229Z,68.60
2018-06-24T06:00:37.885Z,69.40
2018-06-24T06:03:05.578Z,69.40
2018-06-24T06:05:33.121Z,70.00
2018-06-24T06:08:00.650Z,68.50
2018-06-24T06:10:28.303Z,69.10
2018-06-24T06:12:55.733Z,68.20
2018-06-24T06:15:23.327Z,70.40
2018-06-24T06:17:50.894Z,70.20
2018-06-24T06:20:18.531Z,71.30
2018-06-24T06:22:46.101Z,70.30
2018-06-24T06:25:13.699Z,70.70
2018-06-24T06:27:41.235Z,70.80
2018-06-24T06:30:08.812Z,71.20
2018-06-24T06:32:36.397Z,71.80
2018-06-24T06:35:04.173Z,71.70
2018-06-24T06:37:31.738Z,70.70
2018-06-24T06:39:59.313Z,69.40
2018-06-24T06:42:26.978Z,69.90
2018-06-24T06:44:54.628Z,70.60
2018-06-24T06:47:22.113Z,69.60
2018-06-24T06:49:49.746Z,69.50
2018-06-24T06:52:17.281Z,68.70
2018-06-24T06:54:44.795Z,68.70
2018-06-24T06:57:12.356Z,68.00
2018-06-24T06:59:40.598Z,67.80
2018-06-24T07:02:08.122Z,68.50
2018-06-24T07:04:35.826Z,67.20
2018-06-24T07:07:03.355Z,67.70
2018-06-24T07:09:30.976Z,66.30
2018-06-24T07:11:58.604Z,65.80
2018-06-24T07:14:26.153Z,66.00
2018-06-24T07:16:53.817Z,65.90
2018-06-24T07:19:21.354Z,65.90
2018-06-24T07:21:48.851Z,66.70
2018-06-24T07:24:16.348Z,66.70
2018-06-24T07:26:44.018Z,65.90
2018-06-24T07:29:11.726Z,64.60
2018-06-24T07:31:39.242Z,64.40
2018-06-24T07:34:06.881Z,63.10
2018-06-24T07:36:34.470Z,64.50
2018-06-24T07:39:02.134Z,63.50
2018-06-24T07:41:29.725Z,63.60
2018-06-24T07:43:57.278Z,62.70
2018-06-24T07:46:24.823Z,62.30
2018-06-24T07:48:52.512Z,62.80
2018-06-24T07:51:20.297Z,62.70
2018-06-24T07:53:47.899Z,63.60
2018-06-24T07:56:15.470Z,63.30
2018-06-24T07:58:43.070Z,62.50
2018-06-24T08:01:10.801Z,62.70
2018-06-24T08:03:38.343Z,61.50
2018-06-24T08:06:06.004Z,60.70
2018-06-24T08:08:33.492Z,59.20
2018-06-24T08:11:01.121Z,59.50
2018-06-24T08:13:28.690Z,60.20
2018-06-24T08:15:56.392Z,61.20
2018-06-24T08:18:23.983Z,61.40
2018-06-24T08:20:51.588Z,61.80
2018-06-24T08:23:19.132Z,59.90
2018-06-24T08:25:46.770Z,60.70
2018-06-24T08:28:14.312Z,60.30
2018-06-24T08:30:41.773Z,59.90
2018-06-24T08:33:09.393Z,60.90
2018-06-24T08:35:37.059Z,60.10
2018-06-24T08:38:04.860Z,60.10
2018-06-24T08:40:32.468Z,59.70
2018-06-24T08:43:00.164Z,61.20
2018-06-24T08:45:27.793Z,59.80
2018-06-24T08:47:55.387Z,59.60
2018-06-24T08:50:23.003Z,58.60
2018-06-24T08:52:50.568Z,59.30
2018-06-24T08:55:18.246Z,58.80
2018-06-24T08:57:45.757Z,58.10
2018-06-24T09:00:13.265Z,57.70
2018-06-24T09:02:40.957Z,59.00
2018-06-24T09:05:08.559Z,58.00
2018-06-24T09:07:36.229Z,58.30
2018-06-24T09:10:03.806Z,57.80
2018-06-24T09:12:31.403Z,59.10
2018-06-24T09:14:59.039Z,59.90
2018-06-24T09:17:26.649Z,57.00
2018-06-24T09:19:54.270Z,58.90
2018-06-24T09:22:21.812Z,58.10
2018-06-24T09:24:49.428Z,59.90
2018-06-24T09:27:16.994Z,58.50
2018-06-24T09:29:44.602Z,58.10
2018-06-24T09:32:12.323Z,58.60
2018-06-24T09:34:39.936Z,58.20
2018-06-24T09:37:07.537Z,59.60
2018-06-24T09:39:35.150Z,57.30
2018-06-24T09:42:02.732Z,57.80
2018-06-24T09:44:30.416Z,57.80
2018-06-24T09:46:58.078Z,57.70
2018-06-24T09:49:25.631Z,57.10
2018-06-24T09:51:53.285Z,56.70
2018-06-24T09:54:20.850Z,56.60
2018-06-24T09:56:48.375Z,54.20
2018-06-24T09:59:15.872Z,52.50
2018-06-24T10:01:43.471Z,54.10
2018-06-24T10:04:10.983Z,54.40
2018-06-24T10:06:38.460Z,53.90
2018-06-24T10:09:07.589Z,52.30
2018-06-24T10:11:35.130Z,51.20
2018-06-24T10:14:02.867Z,51.30
2018-06-24T10:16:30.512Z,53.90
2018-06-24T10:18:58.040Z,51.90
2018-06-24T10:21:25.578Z,53.20
2018-06-24T10:23:58.657Z,54.20
2018-06-24T10:26:26.176Z,52.20
2018-06-24T10:28:53.764Z,52.50
2018-06-24T10:31:22.354Z,52.20
2018-06-24T10:33:49.909Z,52.10
2018-06-24T10:36:17.438Z,52.40
2018-06-24T10:38:44.931Z,51.00
2018-06-24T10:41:12.608Z,52.10
2018-06-24T10:43:40.184Z,51.50
2018-06-24T10:46:07.678Z,51.80
2018-06-24T10:48:35.224Z,52.00
2018-06-24T10:51:02.728Z,51.30
2018-06-24T10:53:30.228Z,50.10
2018-06-24T10:55:57.937Z,49.80
2018-06-24T10:58:25.476Z,50.80
2018-06-24T11:00:52.980Z,50.10
2018-06-24T11:03:20.454Z,49.00
2018-06-24T11:05:48.010Z,50.80
2018-06-24T11:08:15.587Z,49.70
2018-06-24T11:10:43.145Z,49.20
2018-06-24T11:13:10.668Z,48.10
2018-06-24T11:15:38.160Z,50.30
2018-06-24T11:18:05.790Z,48.30
2018-06-24T11:20:33.278Z,48.30
2018-06-24T11:23:00.794Z,50.00
2018-06-24T11:25:28.262Z,51.00
2018-06-24T11:27:55.978Z,51.90
2018-06-24T11:30:23.570Z,49.50
2018-06-24T11:32:51.172Z,49.00
2018-06-24T11:35:18.822Z,47.50
2018-06-24T11:37:46.535Z,48.50
2018-06-24T11:40:14.115Z,49.00
2018-06-24T11:42:41.624Z,47.90
2018-06-24T11:45:09.156Z,48.40
2018-06-24T11:47:36.897Z,47.00
2018-06-24T11:50:04.452Z,45.60
2018-06-24T11:52:31.926Z,46.10
2018-06-24T11:54:59.507Z,49.00
2018-06-24T11:57:27.022Z,46.00
2018-06-24T11:59:54.626Z,46.70
2018-06-24T12:02:22.162Z,47.20
2018-06-24T12:04:49.667Z,46.20
2018-06-24T12:07:17.341Z,47.60
2018-06-24T12:09:44.930Z,47.30
2018-06-24T12:12:12.579Z,46.10
2018-06-24T12:14:40.185Z,45.80
2018-06-24T12:17:07.685Z,46.40
2018-06-24T12:19:35.331Z,47.60
2018-06-24T12:22:03.164Z,46.90
2018-06-24T12:24:30.689Z,46.20
2018-06-24T12:26:58.274Z,44.70
2018-06-24T12:29:25.838Z,45.00
2018-06-24T12:31:53.598Z,45.00
2018-06-24T12:34:21.212Z,44.60
2018-06-24T12:36:48.740Z,45.40
2018-06-24T12:39:17.466Z,45.60
2018-06-24T12:41:45.101Z,46.50
2018-06-24T12:44:12.786Z,46.50
2018-06-24T12:46:40.459Z,45.60
2018-06-24T12:49:08.307Z,47.30
2018-06-24T12:51:36.855Z,46.00
2018-06-24T12:54:05.748Z,44.80
2018-06-24T12:56:33.302Z,44.90
2018-06-24T12:59:01.137Z,44.40
2018-06-24T13:01:28.400Z,44.50
2018-06-24T13:03:56.197Z,44.10
2018-06-24T13:06:23.892Z,43.80
2018-06-24T13:08:51.388Z,42.60
2018-06-24T13:11:19.056Z,45.50
2018-06-24T13:13:46.652Z,42.40
2018-06-24T13:16:14.413Z,43.00
2018-06-24T13:18:41.998Z,41.40
2018-06-24T13:21:09.498Z,41.70
2018-06-24T13:23:37.053Z,41.10
2018-06-24T13:26:04.567Z,41.70
2018-06-24T13:28:32.168Z,42.00
2018-06-24T13:30:59.747Z,40.60
2018-06-24T13:33:27.281Z,39.90
2018-06-24T13:35:54.892Z,41.00
2018-06-24T13:38:22.409Z,43.10
2018-06-24T13:40:50.033Z,43.20
2018-06-24T13:43:17.635Z,39.90
2018-06-24T13:45:45.165Z,40.20
2018-06-24T13:48:12.726Z,42.30
2018-06-24T13:50:40.335Z,41.80
2018-06-24T13:53:07.886Z,40.50
2018-06-24T13:55:35.464Z,41.70
2018-06-24T13:58:03.220Z,41.40
2018-06-24T14:00:30.711Z,40.70
2018-06-24T14:02:58.676Z,41.50
2018-06-24T14:05:26.282Z,40.50
2018-06-24T14:07:53.931Z,40.40
2018-06-24T14:10:21.570Z,40.70
2018-06-24T14:12:49.165Z,40.00
2018-06-24T14:15:16.732Z,39.10
2018-06-24T14:17:44.348Z,40.60
2018-06-24T14:20:11.997Z,39.90
2018-06-24T14:22:39.497Z,40.30
2018-06-24T14:25:07.132Z,39.90
2018-06-24T14:27:34.681Z,41.40
2018-06-24T14:30:02.170Z,39.80
2018-06-24T14:32:29.814Z,39.90
2018-06-24T14:34:57.405Z,39.70
2018-06-24T14:37:24.992Z,39.60
2018-06-24T14:39:52.688Z,40.50
2018-06-24T14:42:20.274Z,39.30
2018-06-24T14:44:47.995Z,40.10
2018-06-24T14:47:15.530Z,39.60
2018-06-24T14:49:43.440Z,39.00
2018-06-24T14:52:10.980Z,39.00
2018-06-24T14:54:38.664Z,39.20
2018-06-24T14:57:06.258Z,39.00
2018-06-24T14:59:33.848Z,40.30
2018-06-24T15:02:01.397Z,40.20
2018-06-24T15:04:28.952Z,39.50
2018-06-24T15:06:56.481Z,40.70
2018-06-24T15:09:24.077Z,39.20
2018-06-24T15:11:51.684Z,39.00
2018-06-24T15:14:19.304Z,39.60
2018-06-24T15:16:46.938Z,39.30
2018-06-24T15:19:14.482Z,39.50
2018-06-24T15:21:42.077Z,40.20
2018-06-24T15:24:09.637Z,40.20
2018-06-24T15:26:37.232Z,40.50
2018-06-24T15:29:04.828Z,39.80
2018-06-24T15:31:32.524Z,39.10
2018-06-24T15:34:00.106Z,39.00
2018-06-24T15:36:27.722Z,40.40
2018-06-24T15:38:55.301Z,41.50
2018-06-24T15:41:22.933Z,39.40
2018-06-24T15:43:50.514Z,38.70
2018-06-24T15:46:18.081Z,39.90
2018-06-24T15:48:46.051Z,39.70
2018-06-24T15:51:15.116Z,38.70
2018-06-24T15:53:42.710Z,39.10
2018-06-24T15:56:10.432Z,39.00
2018-06-24T15:58:38.000Z,39.40
2018-06-24T16:01:06.100Z,39.20
2018-06-24T16:03:33.746Z,38.30
2018-06-24T16:06:01.335Z,40.00
2018-06-24T16:08:28.933Z,41.10
2018-06-24T16:10:56.476Z,42.70
2018-06-24T16:13:24.117Z,40.10
2018-06-24T16:15:51.742Z,39.90
2018-06-24T16:18:19.205Z,40.70
2018-06-24T16:20:46.983Z,39.50
2018-06-24T16:23:14.496Z,40.80
2018-06-24T16:25:42.033Z,40.10
2018-06-24T16:28:09.607Z,39.40
2018-06-24T16:30:37.270Z,39.40
2018-06-24T16:33:04.862Z,39.50
2018-06-24T16:35:32.477Z,39.90
2018-06-24T16:38:00.036Z,39.20
2018-06-24T16:40:27.561Z,39.70
2018-06-24T16:42:55.155Z,40.10
2018-06-24T16:45:22.761Z,40.90
2018-06-24T16:47:50.380Z,41.40
2018-06-24T16:50:17.977Z,39.40
2018-06-24T16:52:45.686Z,42.10
2018-06-24T16:55:13.235Z,42.30
2018-06-24T16:57:40.928Z,40.90
2018-06-24T17:00:08.494Z,40.70
2018-06-24T17:02:36.325Z,42.30
2018-06-24T17:05:03.847Z,42.20
2018-06-24T17:07:31.531Z,42.10
2018-06-24T17:09:59.042Z,41.70
2018-06-24T17:12:26.572Z,42.20
2018-06-24T17:14:54.201Z,41.60
2018-06-24T17:17:21.929Z,42.80
2018-06-24T17:19:49.574Z,43.20
2018-06-24T17:22:17.269Z,41.50
2018-06-24T17:24:44.869Z,42.90
2018-06-24T17:27:12.458Z,43.30
2018-06-24T17:29:40.139Z,44.00
2018-06-24T17:32:07.644Z,42.50
2018-06-24T17:34:35.175Z,42.80
2018-06-24T17:37:09.480Z,43.70
2018-06-24T17:39:37.005Z,43.90
2018-06-24T17:42:04.628Z,43.00
2018-06-24T17:44:32.343Z,43.70
2018-06-24T17:47:00.021Z,44.70
2018-06-24T17:49:27.551Z,45.00
2018-06-24T17:51:55.191Z,45.20
2018-06-24T17:54:23.813Z,44.80
2018-06-24T17:56:51.364Z,45.00
2018-06-24T17:59:18.945Z,44.60
2018-06-24T18:01:46.480Z,44.80
2018-06-24T18:04:13.998Z,45.30
2018-06-24T18:06:41.538Z,45.20
2018-06-24T18:09:10.353Z,45.30
2018-06-24T18:11:38.123Z,45.10
2018-06-24T18:14:05.781Z,45.80
2018-06-24T18:16:34.192Z,45.60
2018-06-24T18:19:01.801Z,46.10
2018-06-24T18:21:29.414Z,46.20
2018-06-24T18:23:57.604Z,46.30
2018-06-24T18:26:25.651Z,46.50
2018-06-24T18:28:53.229Z,47.10
2018-06-24T18:31:20.805Z,47.20
2018-06-24T18:33:49.330Z,47.70
2018-06-24T18:36:16.848Z,48.30
2018-06-24T18:38:44.552Z,48.60
2018-06-24T18:41:12.086Z,49.10
2018-06-24T18:43:39.690Z,48.70
2018-06-24T18:46:07.244Z,48.90
2018-06-24T18:48:34.870Z,49.00
2018-06-24T18:51:02.475Z,49.10
2018-06-24T18:53:31.130Z,49.10
2018-06-24T18:55:58.935Z,49.70
2018-06-24T18:58:26.734Z,49.90
2018-06-24T19:00:56.002Z,50.10
2018-06-24T19:03:25.891Z,49.90
2018-06-24T19:05:53.483Z,49.90
2018-06-24T19:08:21.133Z,49.80
2018-06-24T19:10:48.789Z,49.40
2018-06-24T19:13:17.529Z,49.40
2018-06-24T19:15:45.130Z,49.60
2018-06-24T19:18:13.764Z,50.20
2018-06-24T19:20:41.307Z,49.60
2018-06-24T19:23:08.862Z,49.60
2018-06-24T19:25:36.457Z,49.80
2018-06-24T19:28:04.361Z,50.10
2018-06-24T19:30:31.960Z,50.00
2018-06-24T19:32:59.435Z,50.00
2018-06-24T19:35:28.028Z,50.00
2018-06-24T19:37:56.580Z,50.30
2018-06-24T19:40:26.178Z,50.40
2018-06-24T19:42:53.782Z,50.00
2018-06-24T19:45:21.390Z,49.80
2018-06-24T19:47:48.942Z,50.00
2018-06-24T19:50:16.560Z,50.50
2018-06-24T19:52:44.204Z,51.20
2018-06-24T19:55:11.794Z,51.40
2018-06-24T19:57:39.308Z,51.60
2018-06-24T20:00:07.084Z,52.30
2018-06-24T20:02:34.749Z,52.30
2018-06-24T20:05:03.297Z,52.90
2018-06-24T20:07:32.978Z,52.50
2018-06-24T20:10:00.625Z,52.30
2018-06-24T20:12:28.296Z,52.10
2018-06-24T20:14:55.834Z,51.70
2018-06-24T20:17:23.467Z,51.40
2018-06-24T20:19:51.039Z,51.40
2018-06-24T20:22:18.735Z,51.80
2018-06-24T20:24:46.361Z,51.40
2018-06-24T20:27:13.987Z,51.60
2018-06-24T20:29:41.688Z,51.80
2018-06-24T20:32:09.349Z,52.20
2018-06-24T20:34:37.259Z,52.70
2018-06-24T20:37:04.914Z,52.90
2018-06-24T20:39:34.704Z,52.80
2018-06-24T20:42:02.289Z,52.70
2018-06-24T20:44:29.916Z,52.50
2018-06-24T20:46:57.616Z,52.60
2018-06-24T20:49:25.384Z,52.40
2018-06-24T20:51:53.047Z,52.50
2018-06-24T20:54:20.675Z,52.60
2018-06-24T20:56:48.264Z,52.50
2018-06-24T20:59:15.848Z,52.40
2018-06-24T21:01:43.464Z,52.30
2018-06-24T21:04:11.145Z,52.60
2018-06-24T21:06:38.705Z,52.80
2018-06-24T21:09:07.635Z,53.10
2018-06-24T21:11:35.294Z,53.20
2018-06-24T21:14:03.053Z,52.80
2018-06-24T21:16:30.770Z,52.80
2018-06-24T21:18:58.345Z,52.70
2018-06-24T21:21:26.043Z,53.60
2018-06-24T21:23:53.668Z,54.30
2018-06-24T21:26:21.228Z,54.40
2018-06-24T21:28:48.786Z,54.20
2018-06-24T21:31:16.452Z,54.40
2018-06-24T21:33:44.114Z,55.10
2018-06-24T21:36:11.774Z,55.70
2018-06-24T21:38:40.537Z,56.60
2018-06-24T21:41:08.212Z,56.70
2018-06-24T21:43:35.988Z,57.60
2018-06-24T21:46:03.756Z,57.30
2018-06-24T21:48:31.314Z,57.10
2018-06-24T21:50:58.912Z,57.20
2018-06-24T21:53:26.584Z,56.80
2018-06-24T21:55:55.323Z,57.00
2018-06-24T21:58:23.085Z,57.00
2018-06-24T22:00:50.746Z,57.00
2018-06-24T22:03:18.512Z,56.70
2018-06-24T22:05:46.175Z,56.40
2018-06-24T22:08:13.835Z,56.20
2018-06-24T22:10:41.529Z,56.70
2018-06-24T22:13:09.109Z,56.80
2018-06-24T22:15:38.767Z,57.40
2018-06-24T22:18:06.506Z,57.30
2018-06-24T22:20:34.295Z,57.20
2018-06-24T22:23:02.059Z,57.50
2018-06-24T22:25:29.823Z,57.60
2018-06-24T22:27:57.485Z,57.50
2018-06-24T22:30:25.144Z,57.80
2018-06-24T22:32:52.703Z,58.20
2018-06-24T22:35:20.467Z,58.10
2018-06-24T22:37:48.232Z,58.10
2018-06-24T22:40:15.997Z,57.90
2018-06-24T22:42:43.759Z,58.90
2018-06-24T22:45:11.524Z,58.20
2018-06-24T22:47:39.187Z,58.50
2018-06-24T22:50:06.951Z,58.20
2018-06-24T22:52:34.817Z,58.60
2018-06-24T22:55:02.604Z,58.40
2018-06-24T22:57:30.344Z,58.70
2018-06-24T23:00:14.699Z,58.90
2018-06-24T23:02:43.077Z,58.80
2018-06-24T23:05:11.404Z,58.70
2018-06-24T23:07:40.241Z,58.70
2018-06-24T23:10:08.006Z,58.70
2018-06-24T23:12:35.776Z,58.60
2018-06-24T23:15:04.557Z,58.70
2018-06-24T23:17:32.324Z,59.00
2018-06-24T23:19:59.985Z,58.70
2018-06-24T23:22:27.851Z,59.50
2018-06-24T23:24:55.616Z,59.00
2018-06-24T23:27:23.339Z,59.00
2018-06-24T23:29:51.353Z,59.50
2018-06-24T23:32:19.112Z,59.40
2018-06-24T23:34:46.977Z,59.50
2018-06-24T23:37:14.640Z,59.60
2018-06-24T23:39:42.402Z,59.80
2018-06-24T23:42:10.169Z,59.50
2018-06-24T23:44:37.847Z,59.50
2018-06-24T23:47:05.693Z,59.70
2018-06-24T23:49:33.508Z,59.30
2018-06-24T23:52:01.326Z,59.40
2018-06-24T23:54:29.191Z,59.30
2018-06-24T23:56:57.059Z,59.40
2018-06-24T23:59:24.823Z,58.80
